Latest Coastal Weather Observations for Dunalley

IDT60701

Issued at 3:32 pm EST Monday 27 April 2015 (issued every 10 minutes, with the page automatically refreshed every 10 minutes)

About coastal observations | Map of coastal stations | Coastal observations for TAS | Marine services | Other Formats
Station Details ID: 094254 Name: DUNALLEY (STROUD POINT) Lat: -42.90 Lon: 147.79 Height: 12.43 m
Data from the previous 72 hours. | See also: Recent months at Dunalley
Date/Time
EST
Temp

°C
Wind Pressure Rain
since 9am
mm
Weather Cloud Vis
km
Sea
Height
m
Swell
Dir
 
Speed
knots
Gust
knots
hPa Trend Height
m
Period
s
Dir
27/03:30pm 12.5 SSW 20 23 1019.4 - 0.0 - - - - - - -
27/03:00pm 12.9 SSW 16 18 1019.0 - 0.0 - - - - - - -
27/02:30pm 13.2 SSW 18 22 1018.5 - 0.0 - - - - - - -
27/02:00pm 13.5 SSW 15 19 1018.3 - 0.0 - - - - - - -
27/01:30pm 13.4 SW 16 19 1018.3 - 0.0 - - - - - - -
27/01:00pm 12.7 SW 17 19 1018.3 - 0.0 - - - - - - -
27/12:30pm 13.1 SW 16 19 1018.5 - 0.0 - - - - - - -
27/12:00pm 12.7 SW 16 18 1018.7 - 0.0 - - - - - - -
27/11:30am 12.4 WSW 17 20 1018.8 - 0.0 - - - - - - -
27/11:00am 12.0 WSW 17 20 1018.8 - 0.0 - - - - - - -
27/10:30am 11.9 WSW 20 24 1018.5 - 0.0 - - - - - - -
27/10:00am 11.8 WSW 19 23 1018.2 - 0.0 - - - - - - -
27/09:30am 10.4 WSW 15 17 1017.9 - 0.0 - - - - - - -
27/09:00am 11.3 WSW 16 20 1017.7 - 0.6 - - - - - - -
27/08:30am 10.8 SW 15 20 1017.5 - 0.6 - - - - - - -
27/08:00am 11.1 WSW 19 22 1017.1 - 0.6 - - - - - - -
27/07:30am 10.7 WSW 17 20 1016.6 - 0.6 - - - - - - -
27/07:00am 10.7 WSW 18 21 1016.2 - 0.6 - - - - - - -
27/06:30am 10.6 W 18 21 1016.0 - 0.6 - - - - - - -
27/06:00am 10.5 WSW 17 21 1015.9 - 0.6 - - - - - - -
27/05:30am 10.6 W 17 21 1015.5 - 0.6 - - - - - - -
27/05:00am 10.3 W 18 23 1015.4 - 0.6 - - - - - - -
27/04:30am 10.3 W 17 21 1015.0 - 0.6 - - - - - - -
27/04:00am 10.5 WSW 16 21 1014.8 - 0.6 - - - - - - -
27/03:30am 10.4 WSW 19 23 1014.6 - 0.6 - - - - - - -
27/03:00am 10.4 WSW 20 27 1014.5 - 0.6 - - - - - - -
27/02:30am 10.2 W 19 24 1014.5 - 0.6 - - - - - - -
27/02:00am 10.5 WSW 20 25 1014.5 - 0.6 - - - - - - -
27/01:30am 10.2 WSW 15 18 1014.5 - 0.6 - - - - - - -
27/01:00am 9.9 SW 18 21 1014.6 - 0.6 - - - - - - -
27/12:30am 10.6 WSW 19 22 1014.6 - 0.6 - - - - - - -
27/12:00am 10.3 WSW 19 23 1014.3 - 0.6 - - - - - - -
 
Date/Time
EST
Temp

°C
Wind Pressure Rain
since 9am
mm
Weather Cloud Vis
km
Sea
Height
m
Swell
Dir
 
Speed
knots
Gust
knots
hPa Trend Height
m
Period
s
Dir
26/11:30pm 10.5 WSW 17 20 1014.3 - 0.6 - - - - - - -
26/11:00pm 10.6 WSW 15 19 1014.3 - 0.6 - - - - - - -
26/10:30pm 10.7 SW 16 19 1014.3 - 0.6 - - - - - - -
26/10:00pm 10.9 WSW 19 24 1014.3 - 0.6 - - - - - - -
26/09:30pm 10.8 WSW 19 22 1014.2 - 0.6 - - - - - - -
26/09:00pm 11.0 WSW 19 25 1013.9 - 0.6 - - - - - - -
26/08:30pm 10.7 SW 16 18 1013.8 - 0.6 - - - - - - -
26/08:00pm 10.9 SW 18 21 1013.5 - 0.6 - - - - - - -
26/07:30pm 10.6 SW 19 21 1013.4 - 0.6 - - - - - - -
26/07:00pm 10.4 SW 13 16 1013.3 - 0.4 - - - - - - -
26/06:30pm 9.9 SW 17 19 1013.0 - 0.4 - - - - - - -
26/06:00pm 11.4 SW 16 19 1012.5 - 0.0 - - - - - - -
26/05:30pm 11.4 SSW 17 19 1012.1 - 0.0 - - - - - - -
26/05:00pm 12.7 SW 19 22 1011.5 - 0.0 - - - - - - -
26/04:30pm 13.1 WSW 19 21 1011.2 - 0.0 - - - - - - -
26/04:00pm 13.3 WSW 19 22 1010.9 - 0.0 - - - - - - -
26/03:30pm 13.5 WSW 17 20 1010.8 - 0.0 - - - - - - -
26/03:00pm 13.3 WSW 16 19 1010.8 - 0.0 - - - - - - -
26/02:30pm 13.9 W 10 12 1010.8 - 0.0 - - - - - - -
26/02:00pm 12.9 W 10 12 1011.0 - 0.0 - - - - - - -
26/01:30pm 13.1 WSW 8 10 1011.0 - 0.0 - - - - - - -
26/01:00pm 13.6 WSW 9 12 1011.1 - 0.0 - - - - - - -
26/12:30pm 13.2 W 9 13 1011.4 - 0.0 - - - - - - -
26/12:00pm 12.7 W 8 12 1011.8 - 0.0 - - - - - - -
26/11:30am 12.8 WSW 10 13 1012.3 - 0.0 - - - - - - -
26/11:00am 12.2 W 10 13 1012.7 - 0.0 - - - - - - -
26/10:30am 11.3 W 10 14 1012.8 - 0.0 - - - - - - -
26/10:00am 10.9 WSW 17 20 1013.0 - 0.0 - - - - - - -
26/09:30am 10.7 WSW 16 19 1013.1 - 0.0 - - - - - - -
26/09:00am 10.6 WSW 17 21 1013.2 - 0.4 - - - - - - -
26/08:30am 10.6 W 16 22 1013.2 - 0.4 - - - - - - -
26/08:00am 10.7 WSW 14 16 1013.2 - 0.4 - - - - - - -
26/07:30am 9.9 WSW 15 18 1013.0 - 0.4 - - - - - - -
26/07:00am 10.0 WSW 16 20 1012.6 - 0.4 - - - - - - -
26/06:30am 9.9 WSW 18 21 1012.4 - 0.4 - - - - - - -
26/06:00am 9.6 WSW 15 17 1012.3 - 0.4 - - - - - - -
26/05:30am 9.8 WSW 13 15 1012.3 - 0.4 - - - - - - -
26/05:00am 9.7 WSW 11 13 1012.4 - 0.4 - - - - - - -
26/04:30am 9.9 WSW 11 15 1012.4 - 0.4 - - - - - - -
26/04:00am 10.0 WSW 13 15 1012.5 - 0.4 - - - - - - -
26/03:30am 9.6 SW 9 11 1012.5 - 0.4 - - - - - - -
26/03:00am 9.8 SW 11 13 1012.7 - 0.2 - - - - - - -
26/02:30am 10.1 SW 12 15 1012.7 - 0.2 - - - - - - -
26/02:00am 10.1 WSW 11 13 1012.9 - 0.2 - - - - - - -
26/01:30am 9.1 WSW 5 5 1013.1 - 0.2 - - - - - - -
26/01:00am 9.0 WSW 4 5 1013.0 - 0.2 - - - - - - -
26/12:30am 8.8 WSW 3 3 1013.0 - 0.2 - - - - - - -
26/12:00am 9.3 WSW 9 11 1013.1 - 0.0 - - - - - - -
 
Date/Time
EST
Temp

°C
Wind Pressure Rain
since 9am
mm
Weather Cloud Vis
km
Sea
Height
m
Swell
Dir
 
Speed
knots
Gust
knots
hPa Trend Height
m
Period
s
Dir
25/11:30pm 9.8 WSW 10 12 1013.1 - 0.0 - - - - - - -
25/11:00pm 9.9 SW 8 9 1013.1 - 0.0 - - - - - - -
25/10:30pm 9.6 WSW 7 8 1013.4 - 0.0 - - - - - - -
25/10:00pm 10.3 SW 6 8 1013.4 - 0.0 - - - - - - -
25/09:30pm 10.8 SW 5 6 1013.4 - 0.0 - - - - - - -
25/09:00pm 11.2 SW 6 8 1013.3 - 0.0 - - - - - - -
25/08:30pm 11.0 SSW 8 11 1013.3 - 0.0 - - - - - - -
25/08:00pm 11.1 SSW 9 13 1013.2 - 0.0 - - - - - - -
25/07:30pm 11.1 SSW 8 11 1013.0 - 0.0 - - - - - - -
25/07:00pm 11.1 SSW 9 11 1012.9 - 0.0 - - - - - - -
25/06:30pm 11.3 S 11 13 1012.6 - 0.0 - - - - - - -
25/06:00pm 11.4 S 11 14 1012.3 - 0.0 - - - - - - -
25/05:30pm 11.7 S 11 13 1011.8 - 0.0 - - - - - - -
25/05:00pm 11.8 S 12 15 1011.6 - 0.0 - - - - - - -
25/04:30pm 11.9 SSW 13 16 1011.3 - 0.0 - - - - - - -
25/04:00pm 12.0 SSW 12 15 1011.1 - 0.0 - - - - - - -
25/03:30pm 12.3 SSW 12 17 1011.0 - 0.0 - - - - - - -
25/03:00pm 12.4 SSW 11 14 1010.8 - 0.0 - - - - - - -
25/02:30pm 12.6 SSW 12 15 1010.6 - 0.0 - - - - - - -
25/02:00pm 12.4 SSW 15 18 1010.3 - 0.0 - - - - - - -
25/01:30pm 12.6 SSW 15 18 1010.2 - 0.0 - - - - - - -
25/01:00pm 13.1 SSW 12 15 1010.3 - 0.0 - - - - - - -
25/12:30pm 13.0 SSW 13 16 1010.3 - 0.0 - - - - - - -
25/12:00pm 12.8 SSW 14 16 1010.4 - 0.0 - - - - - - -
25/11:30am 12.8 SSW 13 17 1010.4 - 0.0 - - - - - - -
25/11:00am 12.6 SSW 14 17 1010.5 - 0.0 - - - - - - -
25/10:30am 12.3 SSW 13 17 1010.4 - 0.0 - - - - - - -
25/10:00am 12.3 SSW 13 17 1010.1 - 0.0 - - - - - - -
25/09:30am 12.2 SSW 13 16 1009.9 - 0.0 - - - - - - -
25/09:00am 11.6 SW 10 13 1009.7 - 3.4 - - - - - - -
25/08:30am 11.2 SSW 14 17 1009.5 - 3.4 - - - - - - -
25/08:00am 11.5 SSW 15 17 1009.0 - 3.4 - - - - - - -
25/07:30am 11.6 SSW 13 16 1008.6 - 3.2 - - - - - - -
25/07:00am 11.6 SW 12 14 1008.0 - 3.2 - - - - - - -
25/06:30am 11.6 WSW 10 13 1007.4 - 3.0 - - - - - - -
25/06:00am 12.1 WSW 13 16 1006.9 - 2.6 - - - - - - -
25/05:30am 12.0 WSW 12 15 1006.5 - 2.6 - - - - - - -
25/05:00am 12.0 WSW 13 15 1006.3 - 2.6 - - - - - - -
25/04:30am 12.1 SSW 10 13 1006.1 - 2.6 - - - - - - -
25/04:00am 12.3 SW 10 13 1005.8 - 2.4 - - - - - - -
25/03:30am 12.5 WSW 13 16 1005.4 - 2.4 - - - - - - -
25/03:00am 12.5 SW 14 16 1005.2 - 2.4 - - - - - - -
25/02:30am 12.7 SW 14 16 1005.2 - 2.4 - - - - - - -
25/02:00am 12.8 SW 14 16 1005.1 - 2.4 - - - - - - -
25/01:30am 12.7 SW 13 16 1005.0 - 2.4 - - - - - - -
25/01:00am 12.8 SW 14 17 1004.8 - 2.4 - - - - - - -
25/12:30am 13.0 SW 16 18 1004.5 - 2.4 - - - - - - -
25/12:00am 13.0 SW 14 18 1004.4 - 2.4 - - - - - - -
 
Date/Time
EST
Temp

°C
Wind Pressure Rain
since 9am
mm
Weather Cloud Vis
km
Sea
Height
m
Swell
Dir
 
Speed
knots
Gust
knots
hPa Trend Height
m
Period
s
Dir
24/11:30pm 13.1 SW 14 17 1004.2 - 2.4 - - - - - - -
24/11:00pm 13.0 SW 13 15 1004.2 - 2.4 - - - - - - -
24/10:30pm 13.2 SW 12 14 1004.1 - 2.4 - - - - - - -
24/10:00pm 13.1 SW 12 14 1004.0 - 2.4 - - - - - - -
24/09:30pm 13.3 SSW 8 11 1003.8 - 2.4 - - - - - - -
24/09:00pm 13.3 SSW 8 10 1003.6 - 2.4 - - - - - - -
24/08:30pm 13.1 SSW 8 9 1003.5 - 2.4 - - - - - - -
24/08:00pm 13.5 ESE 6 7 1003.3 - 2.4 - - - - - - -
24/07:30pm 13.4 ENE 4 7 1003.2 - 2.4 - - - - - - -
24/07:00pm 13.6 ENE 5 6 1003.0 - 2.4 - - - - - - -
24/06:30pm 13.1 NE 3 3 1002.9 - 2.4 - - - - - - -
24/06:00pm 13.1 CALM 0 0 1002.6 - 2.4 - - - - - - -
24/05:30pm 12.9 CALM 0 0 1002.0 - 2.4 - - - - - - -
24/05:00pm 13.4 CALM 0 1 1002.0 - 2.4 - - - - - - -
24/04:30pm 13.7 NE 2 2 1001.7 - 2.4 - - - - - - -
24/04:00pm 13.8 NE 3 3 1002.0 - 2.4 - - - - - - -

Other Formats:

Comma delimited format used in spreadsheet applications
http://www.bom.gov.au/fwo/IDT60701/IDT60701.94951.axf

JavaScript Object Notation format (JSON) in row-major order
http://www.bom.gov.au/fwo/IDT60701/IDT60701.94951.json